createdAt,value
2023-05-14T00:01:34.118Z,97747.91
2023-05-14T00:04:04.390Z,97745.25
2023-05-14T00:06:37.006Z,97746.63
2023-05-14T00:09:07.420Z,97739.44
2023-05-14T00:11:37.568Z,97735.28
2023-05-14T00:14:08.545Z,97726.56
2023-05-14T00:16:39.550Z,97708.66
2023-05-14T00:19:09.330Z,97704.22
2023-05-14T00:21:41.418Z,97711.38
2023-05-14T00:24:11.632Z,97702.34
2023-05-14T00:26:41.378Z,97708.66
2023-05-14T00:29:11.770Z,97700.47
2023-05-14T00:31:42.636Z,97696.53
2023-05-14T00:34:12.770Z,97692.94
2023-05-14T00:36:45.936Z,97695.06
2023-05-14T00:39:16.941Z,97695.63
2023-05-14T00:41:47.279Z,97689.75
2023-05-14T00:44:17.002Z,97679.56
2023-05-14T00:46:47.429Z,97691.41
2023-05-14T00:49:18.665Z,97684.28
2023-05-14T00:51:51.356Z,97678.84
2023-05-14T00:54:23.195Z,97676.97
2023-05-14T00:56:54.774Z,97686.03
2023-05-14T00:59:24.978Z,97680.91
2023-05-14T01:01:55.965Z,97682.44
2023-05-14T01:04:28.836Z,97678.59
2023-05-14T01:07:10.950Z,97678.09
2023-05-14T01:09:46.981Z,97671.22
2023-05-14T01:12:23.302Z,97670.50
2023-05-14T01:14:59.679Z,97667.25
2023-05-14T01:17:37.473Z,97665.78
2023-05-14T01:20:09.878Z,97650.97
2023-05-14T01:22:42.293Z,97656.56
2023-05-14T01:25:12.736Z,97653.81
2023-05-14T01:27:47.855Z,97650.66
2023-05-14T01:30:21.842Z,97658.09
2023-05-14T01:32:56.774Z,97659.31
2023-05-14T01:35:29.770Z,97658.03
2023-05-14T01:38:04.720Z,97659.97
2023-05-14T01:40:36.658Z,97657.06
2023-05-14T01:43:08.505Z,97657.69
2023-05-14T01:45:39.474Z,97655.81
2023-05-14T01:48:10.784Z,97660.34
2023-05-14T01:50:43.517Z,97655.91
2023-05-14T01:53:16.717Z,97656.59
2023-05-14T01:55:47.459Z,97656.34
2023-05-14T01:58:21.466Z,97652.97
2023-05-14T02:00:51.885Z,97645.69
2023-05-14T02:03:22.035Z,97646.81
2023-05-14T02:05:52.497Z,97647.28
2023-05-14T02:08:26.894Z,97644.09
2023-05-14T02:10:57.197Z,97643.47
2023-05-14T02:13:28.057Z,97637.88
2023-05-14T02:15:59.779Z,97636.63
2023-05-14T02:18:30.000Z,97638.31
2023-05-14T02:20:59.792Z,97636.13
2023-05-14T02:23:41.101Z,97634.97
2023-05-14T02:26:13.062Z,97629.91
2023-05-14T02:28:43.080Z,97635.03
2023-05-14T02:31:14.831Z,97627.13
2023-05-14T02:33:45.099Z,97625.06
2023-05-14T02:36:16.182Z,97624.91
2023-05-14T02:38:48.601Z,97611.28
2023-05-14T02:41:19.203Z,97611.81
2023-05-14T02:43:51.079Z,97621.84
2023-05-14T02:46:21.871Z,97607.19
2023-05-14T02:48:52.353Z,97607.75
2023-05-14T02:51:23.460Z,97610.13
2023-05-14T02:53:56.751Z,97603.44
2023-05-14T02:56:28.505Z,97600.75
2023-05-14T02:59:00.660Z,97608.69
2023-05-14T03:01:30.973Z,97606.81
2023-05-14T03:04:01.855Z,97598.66
2023-05-14T03:06:32.769Z,97590.78
2023-05-14T03:09:04.790Z,97590.16
2023-05-14T03:11:38.295Z,97587.59
2023-05-14T03:14:09.015Z,97583.91
2023-05-14T03:16:40.393Z,97592.41
2023-05-14T03:19:11.001Z,97587.47
2023-05-14T03:21:41.874Z,97592.97
2023-05-14T03:24:14.133Z,97586.31
2023-05-14T03:26:44.521Z,97583.91
2023-05-14T03:29:18.358Z,97586.84
2023-05-14T03:31:48.434Z,97595.84
2023-05-14T03:34:18.271Z,97594.97
2023-05-14T03:36:48.538Z,97590.28
2023-05-14T03:39:21.346Z,97589.19
2023-05-14T03:41:51.615Z,97582.97
2023-05-14T03:44:21.586Z,97584.09
2023-05-14T03:46:52.205Z,97593.03
2023-05-14T03:49:22.793Z,97594.47
2023-05-14T03:51:52.914Z,97585.44
2023-05-14T03:54:25.741Z,97590.63
2023-05-14T03:56:55.856Z,97591.91
2023-05-14T03:59:26.631Z,97592.25
2023-05-14T04:01:56.691Z,97595.13
2023-05-14T04:04:26.343Z,97589.91
2023-05-14T04:06:57.072Z,97586.63
2023-05-14T04:09:29.856Z,97586.13
2023-05-14T04:12:00.403Z,97582.53
2023-05-14T04:14:31.260Z,97587.47
2023-05-14T04:17:01.523Z,97584.84
2023-05-14T04:19:31.746Z,97584.47
2023-05-14T04:22:01.907Z,97579.66
2023-05-14T04:24:33.379Z,97574.38
2023-05-14T04:27:03.103Z,97568.13
2023-05-14T04:29:34.008Z,97570.81
2023-05-14T04:32:05.297Z,97566.69
2023-05-14T04:34:37.034Z,97563.16
2023-05-14T04:37:09.535Z,97560.13
2023-05-14T04:39:43.251Z,97565.03
2023-05-14T04:42:14.108Z,97560.16
2023-05-14T04:44:44.148Z,97561.47
2023-05-14T04:47:14.389Z,97558.41
2023-05-14T04:49:45.012Z,97551.97
2023-05-14T04:52:15.211Z,97548.84
2023-05-14T04:54:46.858Z,97552.47
2023-05-14T04:57:16.945Z,97548.84
2023-05-14T04:59:47.616Z,97543.25
2023-05-14T05:02:17.731Z,97545.81
2023-05-14T05:04:49.547Z,97530.16
2023-05-14T05:07:19.922Z,97539.47
2023-05-14T05:09:52.183Z,97539.91
2023-05-14T05:12:23.199Z,97537.63
2023-05-14T05:14:53.661Z,97529.31
2023-05-14T05:17:24.260Z,97529.13
2023-05-14T05:19:54.942Z,97524.78
2023-05-14T05:22:26.940Z,97530.00
2023-05-14T05:25:00.211Z,97529.03
2023-05-14T05:27:30.448Z,97526.81
2023-05-14T05:30:00.760Z,97522.25
2023-05-14T05:32:30.855Z,97518.16
2023-05-14T05:35:01.211Z,97519.78
2023-05-14T05:37:31.899Z,97519.09
2023-05-14T05:40:04.814Z,97517.75
2023-05-14T05:42:35.850Z,97516.97
2023-05-14T05:45:07.287Z,97510.41
2023-05-14T05:47:37.320Z,97514.84
2023-05-14T05:50:10.367Z,97509.06
2023-05-14T05:52:41.026Z,97513.56
2023-05-14T05:55:12.836Z,97516.19
2023-05-14T05:57:43.029Z,97514.34
2023-05-14T06:00:14.986Z,97510.16
2023-05-14T06:02:45.633Z,97511.66
2023-05-14T06:05:16.091Z,97511.09
2023-05-14T06:07:46.343Z,97510.16
2023-05-14T06:10:18.255Z,97520.22
2023-05-14T06:12:49.054Z,97510.59
2023-05-14T06:15:18.584Z,97507.53
2023-05-14T06:17:49.761Z,97502.56
2023-05-14T06:20:20.844Z,97497.31
2023-05-14T06:22:51.824Z,97492.13
2023-05-14T06:25:23.435Z,97490.84
2023-05-14T06:27:53.587Z,97495.09
2023-05-14T06:30:24.148Z,97489.66
2023-05-14T06:32:55.472Z,97481.94
2023-05-14T06:35:26.388Z,97496.88
2023-05-14T06:37:57.106Z,97482.59
2023-05-14T06:40:29.558Z,97482.59
2023-05-14T06:43:00.396Z,97486.06
2023-05-14T06:45:33.212Z,97472.47
2023-05-14T06:48:03.752Z,97480.16
2023-05-14T06:50:34.449Z,97483.53
2023-05-14T06:53:05.479Z,97469.91
2023-05-14T06:55:38.827Z,97466.44
2023-05-14T06:58:09.252Z,97471.38
2023-05-14T07:00:40.598Z,97454.78
2023-05-14T07:03:11.208Z,97457.69
2023-05-14T07:05:46.990Z,97456.66
2023-05-14T07:08:17.088Z,97456.91
2023-05-14T07:10:48.923Z,97455.81
2023-05-14T07:13:19.203Z,97453.78
2023-05-14T07:15:50.391Z,97457.19
2023-05-14T07:18:20.914Z,97454.34
2023-05-14T07:20:51.789Z,97464.31
2023-05-14T07:23:22.345Z,97461.84
2023-05-14T07:25:54.817Z,97465.69
2023-05-14T07:28:25.342Z,97455.47
2023-05-14T07:30:56.994Z,97453.59
2023-05-14T07:33:27.786Z,97462.41
2023-05-14T07:35:58.424Z,97456.66
2023-05-14T07:38:29.140Z,97456.81
2023-05-14T07:41:01.118Z,97463.06
2023-05-14T07:43:31.980Z,97450.19
2023-05-14T07:46:03.117Z,97452.84
2023-05-14T07:48:33.526Z,97436.41
2023-05-14T07:51:03.984Z,97433.19
2023-05-14T07:53:33.831Z,97434.81
2023-05-14T07:56:06.658Z,97428.78
2023-05-14T07:58:39.623Z,97425.38
2023-05-14T08:03:56.990Z,97420.19
2023-05-14T08:06:30.501Z,97420.44
2023-05-14T08:09:00.237Z,97427.59
2023-05-14T08:11:31.549Z,97423.66
2023-05-14T08:14:02.151Z,97416.13
2023-05-14T08:16:32.950Z,97415.00
2023-05-14T08:19:05.594Z,97403.44
2023-05-14T08:21:38.082Z,97405.63
2023-05-14T08:24:09.343Z,97397.66
2023-05-14T08:26:41.277Z,97395.88
2023-05-14T08:29:13.988Z,97393.69
2023-05-14T08:31:45.987Z,97391.19
2023-05-14T08:34:16.962Z,97390.44
2023-05-14T08:36:47.256Z,97389.59
2023-05-14T08:39:19.417Z,97387.13
2023-05-14T08:41:53.831Z,97387.53
2023-05-14T08:44:29.236Z,97381.16
2023-05-14T08:46:59.150Z,97378.00
2023-05-14T08:49:36.013Z,97370.88
2023-05-14T08:52:07.117Z,97368.06
2023-05-14T08:54:38.126Z,97369.00
2023-05-14T08:57:11.784Z,97363.63
2023-05-14T08:59:42.368Z,97363.84
2023-05-14T09:02:15.387Z,97369.78
2023-05-14T09:04:46.908Z,97360.84
2023-05-14T09:07:18.142Z,97365.78
2023-05-14T09:09:48.391Z,97361.09
2023-05-14T09:12:20.838Z,97359.91
2023-05-14T09:14:52.638Z,97363.50
2023-05-14T09:17:23.888Z,97353.63
2023-05-14T09:19:53.990Z,97347.78
2023-05-14T09:22:24.010Z,97343.63
2023-05-14T09:25:06.683Z,97341.88
2023-05-14T09:27:39.624Z,97346.69
2023-05-14T09:30:13.627Z,97343.97
2023-05-14T09:32:46.251Z,97347.69
2023-05-14T09:35:19.539Z,97351.94
2023-05-14T09:37:51.819Z,97340.63
2023-05-14T09:40:24.301Z,97338.88
2023-05-14T09:43:02.573Z,97333.84
2023-05-14T09:45:33.229Z,97330.84
2023-05-14T09:48:04.764Z,97324.56
2023-05-14T09:50:35.605Z,97322.69
2023-05-14T09:53:06.928Z,97311.50
2023-05-14T09:55:38.861Z,97312.53
2023-05-14T09:58:15.876Z,97303.78
2023-05-14T10:00:49.569Z,97308.94
2023-05-14T10:03:21.457Z,97301.63
2023-05-14T10:05:52.819Z,97298.25
2023-05-14T10:08:29.157Z,97300.63
2023-05-14T10:11:01.752Z,97300.34
2023-05-14T10:13:36.902Z,97289.91
2023-05-14T10:16:13.285Z,97290.75
2023-05-14T10:18:47.198Z,97290.56
2023-05-14T10:21:17.813Z,97293.44
2023-05-14T10:23:49.541Z,97296.06
2023-05-14T10:26:22.374Z,97300.22
2023-05-14T10:28:56.419Z,97287.31
2023-05-14T10:31:32.926Z,97289.00
2023-05-14T10:34:03.852Z,97293.72
2023-05-14T10:36:35.045Z,97288.94
2023-05-14T10:39:07.446Z,97288.47
2023-05-14T10:41:37.682Z,97285.19
2023-05-14T10:44:12.949Z,97280.31
2023-05-14T10:46:42.672Z,97277.34
2023-05-14T10:49:14.602Z,97269.84
2023-05-14T10:51:47.458Z,97264.25
2023-05-14T10:54:19.444Z,97268.72
2023-05-14T10:56:50.220Z,97266.31
2023-05-14T10:59:22.950Z,97266.38
2023-05-14T11:01:53.696Z,97256.50
2023-05-14T11:04:27.192Z,97246.50
2023-05-14T11:06:59.154Z,97244.81
2023-05-14T11:09:31.872Z,97228.94
2023-05-14T11:12:02.368Z,97227.31
2023-05-14T11:14:36.020Z,97219.97
2023-05-14T11:17:06.474Z,97216.56
2023-05-14T11:19:37.917Z,97214.31
2023-05-14T11:22:08.946Z,97216.94
2023-05-14T11:24:39.655Z,97222.59
2023-05-14T11:27:10.544Z,97227.44
2023-05-14T11:29:45.355Z,97240.69
2023-05-14T11:32:17.017Z,97240.41
2023-05-14T11:34:48.616Z,97237.16
2023-05-14T11:37:19.284Z,97232.63
2023-05-14T11:39:52.387Z,97232.69
2023-05-14T11:42:24.135Z,97232.59
2023-05-14T11:44:58.982Z,97222.53
2023-05-14T11:47:30.103Z,97216.78
2023-05-14T11:50:02.415Z,97219.22
2023-05-14T11:52:32.928Z,97215.78
2023-05-14T11:55:04.281Z,97219.44
2023-05-14T11:57:34.905Z,97220.28
2023-05-14T12:00:14.182Z,97209.91
2023-05-14T12:02:46.385Z,97213.97
2023-05-14T12:05:16.669Z,97216.84
2023-05-14T12:07:48.036Z,97206.03
2023-05-14T12:10:18.411Z,97209.91
2023-05-14T12:12:51.557Z,97202.34
2023-05-14T12:15:24.250Z,97204.25
2023-05-14T12:17:54.571Z,97213.53
2023-05-14T12:20:26.563Z,97200.56
2023-05-14T12:22:57.398Z,97192.00
2023-05-14T12:25:28.497Z,97205.38
2023-05-14T12:27:58.943Z,97194.66
2023-05-14T12:30:39.534Z,97194.50
2023-05-14T12:33:10.485Z,97192.63
2023-05-14T12:35:41.477Z,97194.59
2023-05-14T12:38:14.474Z,97186.94
2023-05-14T12:40:45.484Z,97185.16
2023-05-14T12:43:16.759Z,97186.41
2023-05-14T12:45:49.135Z,97193.16
2023-05-14T12:48:20.133Z,97212.41
2023-05-14T12:50:50.089Z,97215.41
2023-05-14T12:53:21.397Z,97217.81
2023-05-14T12:55:53.111Z,97214.44
2023-05-14T12:58:24.090Z,97217.34
2023-05-14T13:00:57.702Z,97206.53
2023-05-14T13:03:29.496Z,97210.16
2023-05-14T13:06:00.961Z,97203.66
2023-05-14T13:08:31.667Z,97203.94
2023-05-14T13:11:02.118Z,97200.03
2023-05-14T13:13:32.423Z,97199.75
2023-05-14T13:16:04.740Z,97195.25
2023-05-14T13:18:35.371Z,97189.25
2023-05-14T13:21:06.773Z,97193.16
2023-05-14T13:23:37.263Z,97197.09
2023-05-14T13:26:06.881Z,97193.56
2023-05-14T13:28:38.178Z,97195.75
2023-05-14T13:31:12.160Z,97193.34
2023-05-14T13:33:44.509Z,97179.56
2023-05-14T13:36:16.279Z,97181.19
2023-05-14T13:38:48.360Z,97173.41
2023-05-14T13:41:19.176Z,97174.97
2023-05-14T13:43:49.530Z,97162.84
2023-05-14T13:46:21.877Z,97175.38
2023-05-14T13:48:52.344Z,97169.50
2023-05-14T13:51:24.080Z,97161.88
2023-05-14T13:56:30.430Z,97154.81
2023-05-14T13:59:00.697Z,97154.59
2023-05-14T14:01:32.327Z,97150.78
2023-05-14T14:04:02.347Z,97159.06
2023-05-14T14:06:34.230Z,97151.91
2023-05-14T14:09:04.261Z,97138.88
2023-05-14T14:11:35.249Z,97132.47
2023-05-14T14:14:06.111Z,97139.44
2023-05-14T14:16:38.292Z,97147.78
2023-05-14T14:19:09.063Z,97149.84
2023-05-14T14:21:40.013Z,97152.44
2023-05-14T14:24:10.047Z,97150.09
2023-05-14T14:26:39.998Z,97157.06
2023-05-14T14:29:10.799Z,97159.34
2023-05-14T14:31:42.973Z,97151.91
2023-05-14T14:34:13.521Z,97157.09
2023-05-14T14:36:44.662Z,97142.75
2023-05-14T14:39:15.993Z,97141.97
2023-05-14T14:41:48.047Z,97136.78
2023-05-14T14:44:20.506Z,97145.69
2023-05-14T14:46:52.634Z,97147.97
2023-05-14T14:49:22.437Z,97138.22
2023-05-14T14:51:52.818Z,97144.84
2023-05-14T14:54:22.373Z,97141.47
2023-05-14T14:56:54.702Z,97139.94
2023-05-14T14:59:24.525Z,97136.91
2023-05-14T15:01:56.576Z,97138.97
2023-05-14T15:04:26.813Z,97133.84
2023-05-14T15:06:57.584Z,97140.59
2023-05-14T15:09:27.480Z,97142.78
2023-05-14T15:11:57.218Z,97146.03
2023-05-14T15:14:27.079Z,97140.94
2023-05-14T15:16:58.943Z,97149.78
2023-05-14T15:19:29.134Z,97159.88
2023-05-14T15:22:00.841Z,97152.97
2023-05-14T15:24:31.322Z,97142.31
2023-05-14T15:27:01.969Z,97138.66
2023-05-14T15:29:33.637Z,97131.69
2023-05-14T15:32:06.437Z,97125.69
2023-05-14T15:34:36.286Z,97132.69
2023-05-14T15:37:07.741Z,97119.25
2023-05-14T15:39:37.421Z,97123.94
2023-05-14T15:42:08.293Z,97119.25
2023-05-14T15:44:40.599Z,97117.97
2023-05-14T15:47:12.356Z,97119.81
2023-05-14T15:49:42.079Z,97117.28
2023-05-14T15:52:12.504Z,97114.16
2023-05-14T15:54:42.530Z,97110.13
2023-05-14T15:57:13.620Z,97104.03
2023-05-14T15:59:45.239Z,97104.13
2023-05-14T16:02:17.984Z,97103.78
2023-05-14T16:04:50.252Z,97104.09
2023-05-14T16:07:20.348Z,97098.25
2023-05-14T16:09:51.537Z,97098.81
2023-05-14T16:12:21.343Z,97091.41
2023-05-14T16:14:51.521Z,97096.16
2023-05-14T16:17:24.577Z,97097.78
2023-05-14T16:19:56.486Z,97089.22
2023-05-14T16:22:26.989Z,97093.66
2023-05-14T16:24:58.448Z,97091.41
2023-05-14T16:27:29.806Z,97083.69
2023-05-14T16:29:59.740Z,97074.84
2023-05-14T16:32:31.923Z,97073.75
2023-05-14T16:35:03.522Z,97058.84
2023-05-14T16:37:34.336Z,97053.31
2023-05-14T16:40:06.212Z,97055.81
2023-05-14T16:42:36.130Z,97050.69
2023-05-14T16:45:06.648Z,97058.50
2023-05-14T16:47:39.178Z,97059.38
2023-05-14T16:50:11.058Z,97063.50
2023-05-14T16:52:41.062Z,97058.97
2023-05-14T16:55:12.288Z,97057.75
2023-05-14T16:57:44.282Z,97062.41
2023-05-14T17:00:16.334Z,97067.53
2023-05-14T17:02:49.990Z,97062.88
2023-05-14T17:05:19.712Z,97055.78
2023-05-14T17:07:51.480Z,97062.19
2023-05-14T17:10:21.884Z,97077.03
2023-05-14T17:12:51.926Z,97077.69
2023-05-14T17:15:22.527Z,97079.75
2023-05-14T17:17:54.380Z,97088.91
2023-05-14T17:20:24.981Z,97080.31
2023-05-14T17:22:54.961Z,97077.47
2023-05-14T17:25:26.653Z,97068.53
2023-05-14T17:27:57.639Z,97062.00
2023-05-14T17:30:28.429Z,97057.44
2023-05-14T17:33:00.617Z,97056.00
2023-05-14T17:35:31.202Z,97068.41
2023-05-14T17:38:01.628Z,97077.66
2023-05-14T17:40:31.808Z,97069.94
2023-05-14T17:43:01.737Z,97060.47
2023-05-14T17:45:39.397Z,97067.09
2023-05-14T17:48:14.759Z,97055.25
2023-05-14T17:50:44.569Z,97052.94
2023-05-14T17:53:14.713Z,97054.03
2023-05-14T17:55:44.543Z,97058.72
2023-05-14T17:58:15.669Z,97058.38
2023-05-14T18:00:46.394Z,97068.63
2023-05-14T18:03:21.128Z,97062.75
2023-05-14T18:05:53.059Z,97067.88
2023-05-14T18:08:25.576Z,97062.44
2023-05-14T18:10:55.994Z,97072.03
2023-05-14T18:13:26.647Z,97056.34
2023-05-14T18:15:57.228Z,97049.78
2023-05-14T18:18:29.000Z,97054.72
2023-05-14T18:20:59.176Z,97052.75
2023-05-14T18:23:29.568Z,97047.72
2023-05-14T18:26:00.313Z,97046.13
2023-05-14T18:28:30.391Z,97043.28
2023-05-14T18:31:01.010Z,97024.88
2023-05-14T18:33:33.154Z,97020.63
2023-05-14T18:36:04.128Z,97023.88
2023-05-14T18:38:34.553Z,97024.63
2023-05-14T18:41:04.536Z,97026.94
2023-05-14T18:43:34.159Z,97019.94
2023-05-14T18:46:04.615Z,97031.53
2023-05-14T18:48:36.075Z,97026.06
2023-05-14T18:51:08.616Z,97029.56
2023-05-14T18:53:38.345Z,97021.31
2023-05-14T18:56:08.221Z,97036.97
2023-05-14T18:58:37.828Z,97047.31
2023-05-14T19:01:07.774Z,97050.13
2023-05-14T19:03:42.195Z,97040.44
2023-05-14T19:06:12.523Z,97052.53
2023-05-14T19:08:46.673Z,97057.22
2023-05-14T19:11:20.131Z,97060.03
2023-05-14T19:13:50.511Z,97075.84
2023-05-14T19:16:21.499Z,97077.09
2023-05-14T19:18:54.079Z,97080.72
2023-05-14T19:21:24.307Z,97074.31
2023-05-14T19:23:54.884Z,97073.31
2023-05-14T19:26:25.640Z,97069.97
2023-05-14T19:28:59.042Z,97075.94
2023-05-14T19:31:31.707Z,97064.03
2023-05-14T19:34:03.977Z,97061.00
2023-05-14T19:36:34.388Z,97049.25
2023-05-14T19:39:04.375Z,97053.38
2023-05-14T19:41:34.391Z,97058.81
2023-05-14T19:44:04.354Z,97048.16
2023-05-14T19:46:35.189Z,97043.59
2023-05-14T19:49:07.571Z,97033.56
2023-05-14T19:51:37.155Z,97027.34
2023-05-14T19:54:08.195Z,97031.19
2023-05-14T19:56:39.049Z,97048.03
2023-05-14T19:59:09.539Z,97041.19
2023-05-14T20:01:39.889Z,97046.97
2023-05-14T20:04:11.297Z,97034.75
2023-05-14T20:06:41.990Z,97018.03
2023-05-14T20:09:16.048Z,97007.78
2023-05-14T20:11:46.536Z,97006.78
2023-05-14T20:14:16.902Z,97002.66
2023-05-14T20:16:48.029Z,97019.00
2023-05-14T20:19:21.473Z,97009.19
2023-05-14T20:21:51.496Z,97014.94
2023-05-14T20:24:21.167Z,97017.34
2023-05-14T20:26:51.169Z,97022.34
2023-05-14T20:29:20.710Z,97008.19
2023-05-14T20:31:51.428Z,97007.88
2023-05-14T20:34:25.304Z,97015.19
2023-05-14T20:36:56.049Z,97014.97
2023-05-14T20:39:25.756Z,97013.44
2023-05-14T20:41:57.182Z,97010.97
2023-05-14T20:44:28.505Z,97002.56
2023-05-14T20:46:58.540Z,97000.03
2023-05-14T20:49:29.772Z,96988.81
2023-05-14T20:52:00.333Z,96984.00
2023-05-14T20:54:30.255Z,96968.44
2023-05-14T20:56:59.882Z,96961.34
2023-05-14T20:59:30.281Z,96953.44
2023-05-14T21:02:00.658Z,96944.06
2023-05-14T21:04:32.384Z,96950.47
2023-05-14T21:07:04.623Z,96965.59
2023-05-14T21:09:37.306Z,96968.34
2023-05-14T21:12:10.636Z,96969.53
2023-05-14T21:14:42.732Z,96974.34
2023-05-14T21:17:13.296Z,96975.28
2023-05-14T21:19:46.438Z,96976.38
2023-05-14T21:22:16.937Z,96974.88
2023-05-14T21:24:46.945Z,96967.88
2023-05-14T21:27:17.624Z,96967.88
2023-05-14T21:29:47.908Z,96963.75
2023-05-14T21:32:18.368Z,96971.16
2023-05-14T21:34:50.497Z,96971.06
2023-05-14T21:37:20.074Z,96960.59
2023-05-14T21:39:49.989Z,96962.38
2023-05-14T21:42:21.216Z,96968.75
2023-05-14T21:44:51.060Z,96974.34
2023-05-14T21:47:21.504Z,96956.53
2023-05-14T21:49:52.880Z,96952.91
2023-05-14T21:52:23.065Z,96945.47
2023-05-14T21:54:53.293Z,96940.03
2023-05-14T21:57:23.503Z,96940.66
2023-05-14T21:59:53.355Z,96949.94
2023-05-14T22:02:23.682Z,96942.69
2023-05-14T22:04:56.277Z,96941.53
2023-05-14T22:07:27.269Z,96943.94
2023-05-14T22:09:58.871Z,96928.72
2023-05-14T22:12:29.625Z,96926.34
2023-05-14T22:14:59.646Z,96919.13
2023-05-14T22:17:31.532Z,96909.19
2023-05-14T22:20:06.043Z,96907.44
2023-05-14T22:22:37.347Z,96905.25
2023-05-14T22:25:08.358Z,96907.28
2023-05-14T22:27:38.252Z,96903.25
2023-05-14T22:30:10.443Z,96892.25
2023-05-14T22:32:41.064Z,96901.84
2023-05-14T22:35:14.407Z,96894.38
2023-05-14T22:37:44.563Z,96888.59
2023-05-14T22:40:15.233Z,96887.78
2023-05-14T22:42:46.422Z,96893.03
2023-05-14T22:45:16.125Z,96895.94
2023-05-14T22:47:46.224Z,96897.28
2023-05-14T22:50:18.171Z,96882.53
2023-05-14T22:52:48.498Z,96889.63
2023-05-14T22:55:18.528Z,96904.63
2023-05-14T22:57:48.398Z,96898.03
2023-05-14T23:00:18.433Z,96895.59
2023-05-14T23:02:48.500Z,96916.16
2023-05-14T23:05:19.849Z,96923.34
2023-05-14T23:07:49.945Z,96925.47
2023-05-14T23:10:21.120Z,96922.59
2023-05-14T23:12:52.393Z,96927.44
2023-05-14T23:15:22.395Z,96922.75
2023-05-14T23:17:53.748Z,96912.09
2023-05-14T23:20:25.274Z,96915.50
2023-05-14T23:22:55.390Z,96929.25
2023-05-14T23:25:25.338Z,96933.63
2023-05-14T23:27:56.308Z,96929.16
2023-05-14T23:30:26.505Z,96913.59
2023-05-14T23:32:56.765Z,96896.19
2023-05-14T23:35:29.049Z,96901.16
2023-05-14T23:37:59.101Z,96911.59
2023-05-14T23:40:28.612Z,96900.19
2023-05-14T23:43:00.148Z,96884.41
2023-05-14T23:45:30.987Z,96857.88
2023-05-14T23:48:03.661Z,96859.69
2023-05-14T23:50:36.150Z,96867.72
2023-05-14T23:53:06.912Z,96870.44
2023-05-14T23:55:38.019Z,96871.72
2023-05-14T23:58:08.996Z,96875.22
